LGHI/JKH METAR and TAF weather

Enter ICAO airport designator
Station Type Date Time Source
LGHI METAR 2019/06/27 03:50 UTC NOAA

LGHI 270350Z 01013KT CAVOK 26/20 Q1010


Station Type Date Time Source
LGHI Decoded METAR 2019/06/27 03:50 UTC NOAA

Chios Airport , Greece (LGHI) 38-20N 026-08E 4M
Jun 26, 2019 - 11:50 PM EDT / 2019.06.27 0350 UTC
Wind: from the N (010 degrees) at 15 MPH (13 KT):0
Visibility: greater than 7 mile(s):0
Temperature: 78 F (26 C)
Dew Point: 68 F (20 C)
Relative Humidity: 69%
Pressure (altimeter): 29.83 in. Hg (1010 hPa)
ob: LGHI 270350Z 01013KT CAVOK 26/20 Q1010
cycle: 4

Station Type Date Time Source
LGHI TAF 2012/09/21 03:06 UTC NOAA

TAF TAF LGHI 210200Z 2103/2115 VRB05KT 9999 SCT020 PROB30
TEMPO 2103/2106 7000 RA SCT018 BKN030
BECMG 2103/2105 30018KT

Example: see airport list